【ウィンドシア】


「ウィンドシア」によるTwitter検索の結果から選別して表示しています。)



黒ノ人 @hadahashiroi2018-05-14 22:38:59
(ウィンドシアの回収を忘れてクリア後にまた行って取ってきたのは内緒だ)

黒ノ人 @hadahashiroi 2018-05-14 22:35:02
#skyrim
皇帝の船カタリア号にお越しの際はこれらの回収はいかがでしょう?
ウィンドシアはユニーク武器。
黄金の手首ガードは軽装防具。 https://t.co/hdROAl4jqA

@B2_Genki 2018-05-12 15:21:52
@SHO_AIF11 @Varane___10 ウィンドシアしてる図 https://t.co/ujCHKJVVPR

ねじや @NekojiroYamada 2018-05-12 00:35:06
10分分の燃料しかないのに緊急事態を宣言しないのはおかしいだろ
なんとか順調にアプローチしても着陸寸前にウィンドシアが発生したらどうするつもりだよ

八博零士 @eagle_c_01 2018-05-03 11:21:59
L降りの時って、Rにダウンバーストないしウィンドシアが発生したとき、深夜メンテナンスのとき、滑走路検査車両が滑走路内にいるとき、パイロットリクエストのとき(この場合、ほとんど受理されなかった気がする)

鈴蘭桜@文アルにハマってるなう @suzusaku_2jiaka 2018-04-28 19:39:40
暇やからやってきます
1.ウィンドシア
風が強い町…と言うより村です。
町を囲むように山と森があり、山の壁面の洞窟がお店になっていたりします。美しい工芸品があります。
有名な町ではないけれど、町の人はみんな気さくで親切な人達です。… https://t.co/qTSjPajQAd

とんかつ用(エイゴガンバリマス) @meatcutpilot 2018-04-26 10:08:11
機上ウィンドシア警報による回避ねえ。管制指示の逸脱の予防であらかじめG/AのときのHDGとALTを通報か。メモメモ。まあこんな素晴らしい装置がついている飛行機に乗ることないかもだけど。

めらみぽっぷ曲bot @merami_bot 2018-04-21 08:21:11
Seirios / Seirios / 
「WhiteFlame」の楽曲。
作曲はしゃな氏。アルバムタイトルともなっている曲。
後々、「ウィンドシア」で再録される。

みどり @vanira1988 2018-04-19 18:45:24
ウィンドシア的な雲
#イマソラ https://t.co/8JkKSnpz7k

Kaicho77 @Kaicho77_s 2018-04-16 20:54:56
飛行機が等速直線運動でたまるか
(突然のCrossWind)
(突然のウィンドシア
(TOGAスイッチで差をつけろ) https://t.co/tnjopJdI7I

ぐると @guru_to_ 2018-04-15 15:06:20
あとウィンドシア使い出してからなんか 虚無 使うのやめようかな もっとこう 暗殺者らしく麻痺毒とか使いたいし吸血鬼の王も楽しいと言えば楽しい システムとかよく分かってないし死霊術的なの一回も使ったことないけど

北電 @KendnoKoji 2018-04-15 10:28:29
えー、マイクロバーストにウィンドシアといろいろひどいです。 https://t.co/TXkYLm4Hvw

Ring @green_forest8 2018-04-15 10:23:10
ウィンドシア

えびちゃん@marcoflyer.com @ebichan_jkt_bkk 2018-04-15 01:10:01
ファイナルアプローチ中にウィンドシアをくらい「あ、これやばい。ゴーアラかな?」と思ったものの、速攻でエンジン吹かして立て直し、最後は鶴が舞い降りるかのように接地。

AAクルーの操縦手腕に拍手。この点に関しては米国の航空会社ってめっちゃ安心できる

たっちゃん ◢ ◤ @Camel_81 2018-04-11 17:03:45
成田のウィンドシア酷そう

とぶかい @kongo0083 2018-04-09 13:55:09
ウィンドシアがすごい

news archives @seastar_news 2018-04-09 00:16:03
航空機の着陸、「ソフト」より「ドシン」が正解? https://t.co/Nl8wiXpoTk

杉江爺さん、揚げ足取るような記事書くなよ。風上の脚から接地したり、オートブレーキとスポイラーを展開させたり、ウィンドシア対策の、ドシンだろ。ビジネスジャーナルの記事は微妙だ。

どこかで天気が悪くなると呟く何か @metbot_jp 2018-04-06 22:29:13
低気圧の通過により、今日は各地で #強風 となりました。
関東でも朝以降は南南西〜南西の強風が続いています。#成田空港 は横風用の滑走路を持たない上にウィンドシア警報も出っぱなしで、タイミングによっては着陸が困難だったようです。… https://t.co/xHq75bGB0l

虹川 次の参加イベントは4/14脇キャン! @quartet88 2018-04-06 19:13:49
@KamaageDock 気持ちがよくわかりますww

当方、マイクロソフトのFSXですが敢えて真横からの暴風、乱気流、ウィンドシアを最大設定にしてどこまで制御できるか楽しんでましたww

黒くま( •̀(ェ)•́ ) @FABtronika 2018-04-06 17:33:47
ありゃりゃAIRBUSANお疲れ様な事になってますね…他の機はなんとか降りてるのにまさか2回もウィンドシア遭遇するなんて。お客さんツライだろな( '(ェ)'; ) https://t.co/mw9e3VWnge

✈イキリト✈ @airplaneinNAHA 2018-04-06 14:43:35
ウィンドシア
○ウインドシア

✈イキリト✈ @airplaneinNAHA 2018-04-06 14:41:08
那覇空港でウィンドシア観測との事。

黒くま( •̀(ェ)•́ ) @FABtronika 2018-04-06 13:09:03
一方の成田は断続的にウィンドシアとゴーアラウンド発生しとりますね( '(ェ)' )

黒くま( •̀(ェ)•́ ) @FABtronika 2018-04-06 12:58:04
おっぺいちゃんはThailandで微妙に逃げてるし、成田はウィンドシア出てるしで、どこに集中すれば良いのかわからん昼休み( '(ェ)'; )

ケロ鷲 @KEROWASHI 2018-04-03 21:10:44
ほたるちゃんがCAになると乗る飛行機がNo.1〜No.4エンジンオールファイア、カーゴルームファイア、油圧全喪失、ギア故障、機内減圧発生、急病人発生、フラップロスト、スコーク7700、滑走路ウィンドシア発生してもう駄目。

水野駆馬P(今日は4/1) @iMTF_SotieHead 2018-03-24 09:40:17
ハードランディングかなにか着陸直前にウィンドシアとか予測不能ななにか発生したのか。いずれにせよJTSBによる解明が待たれる。

買いもの上手 @item_search 2018-03-19 14:01:14
「USモデル」 ナイキ ゴルフ ウィンドシア ライト WINDSHEER LITE アンブレラ ブラック×グリーン 最安値 ⇒ 3,290円 https://t.co/Y9ZhMI3PqD

ドクター・シュンガ @Dr_shunga 2018-03-14 00:51:08
"Meteorological data from the time of this crash suggest there were thunderstorms in the vicinity, with a variable… https://t.co/9FDmUvgbdO

Taxiway-alpha @TaxiwayAlpha 2018-03-09 14:52:25
ANA767、ウィンドシアにて離陸滑走中止とかビックリするわ。
只今は快適に上昇中、

阿知鴨 @achigamo 2018-03-09 11:30:15
ウィンドシア怖えええええ、機体が横にスリップしたぞ

めらみぽっぷ曲bot @merami_bot 2018-03-08 20:21:14
Seirios / Seirios / 
「WhiteFlame」の楽曲。
作曲はしゃな氏。アルバムタイトルともなっている曲。
後々、「ウィンドシア」で再録される。

アッキーorアキ @WfVPkfMpBUALrdo 2018-03-08 19:27:00
帰りの飛行機、終始揺れていたが最後の最後で一気に降下した。
あれがウィンドシアか?

どこかで天気が悪くなると呟く何か @metbot_jp 2018-03-05 17:25:03
ちょうど #低気圧 および #前線 が通過しているため、羽田や成田では #ウィンドシア そのもの (地上や機内でアラートが出る) や、それによる #乱気流 などの影響で運航に影響が出てくるかもしれません。
先程1機 (ANA110… https://t.co/8v9CjGS6U9

スポンサーリンク

Compass Rose @hms_compassrose 2018-03-05 11:10:44
東京アプローチ・成田タワー聴いてると頻繁にQNHの変更アナウンスがあったり管制官が降りた便にウィンドシアの有無を尋ねたりしててああ来るぞ来るぞという感じ。

Galaxy note @jhonson_639 2018-03-04 20:28:36
ウィンドシアは最悪墜落するからな、観測された段階で着陸中止になるけど、多分ゴーアラウンドの判断ができないくらい急に来たんかな

Galaxy note @jhonson_639 2018-03-04 20:27:21
着陸時…ウィンドシアかな

HMS KD級潜水艦 @KamaageDock 2018-03-02 17:43:27
小型ジェット機での離陸中にウィンドシアに遭遇
幸いガッツリ呑まれることはなかったけど、操作中はいつ落ちるかとビクビクしてた

#P3D https://t.co/ikFwZlspU4

Galaxy note @jhonson_639 2018-03-01 18:59:18
セントレアでウィンドシア

ゴーヨン欲しい @az_yu 2018-02-26 18:58:06
木曜日、ウィンドシア祭りか…

めらみぽっぷ曲bot @merami_bot 2018-02-26 16:21:11
Seirios / Seirios / 
「WhiteFlame」の楽曲。
作曲はしゃな氏。アルバムタイトルともなっている曲。
後々、「ウィンドシア」で再録される。

ディクレイ@ぬまち @Diclay_Harbor 2018-02-25 19:51:39
@OdangoSakuya ウィンドシア!ダウンバースト!タービュランス!って感じで・・・

home @sumika_home 2018-02-14 13:51:46
×アラキアが出てくるのを見たことがあるか
ウィンドシアが出てくるのを見たことがあるか

めらみぽっぷ曲bot @merami_bot 2018-02-13 08:21:13
Seirios / Seirios / 
「WhiteFlame」の楽曲。
作曲はしゃな氏。アルバムタイトルともなっている曲。
後々、「ウィンドシア」で再録される。

ガチゴ @gachigora 2018-02-11 22:58:00
ウィンドシアのぬいぐるみほしあ

ましろ🇨🇮 @mofumofubox 2018-02-09 16:27:15
@ruriko_fanatic Fedex MD11Fでウィンドシアもろ受けするか

めらみぽっぷ曲bot @merami_bot 2018-02-06 12:21:12
Seirios / Seirios / 
「WhiteFlame」の楽曲。
作曲はしゃな氏。アルバムタイトルともなっている曲。
後々、「ウィンドシア」で再録される。

touko @oroto5 2018-02-05 14:32:49
台風で積乱雲、と来たし、本部?も風向きずっと気にしてたから、落雷の後に絶対マイクロバーストかウィンドシア来ると信じて疑ってなかったのに、あっさり着陸して逆に驚いたw

神谷にゃんきちAXZ @nekokichi59 2018-02-03 21:06:43
ウィンドシアって何のアラートだっけ

あと @ororon10 2018-01-29 20:49:47
やっぱだめ ウィンドシアはママが使いたいからキーニング…はダメだな キーニングはだめだ じゃあモラグ様のメイスでどうだ 威圧感がすごいぞ

あと @ororon10 2018-01-29 20:47:24
ひ……悲痛のダガーあげる…?それともウィンドシアか…?ウィンドシア欲しいのか…!?ウィンドシアだな…!?わかったママ取ってくるから…無事を祈ってて…

ゆけまろ @JA625A 2018-01-29 19:27:03
@JA623A ウィンドシアにご注意

瑛嗣3 @ZoidsUx 2018-01-27 18:05:53
トーテムシャーマン強い( ̄∀ ̄)

原始融合積む勇気が必要。
ウィンドシアからのアラキアが7疾風になる( ̄∀ ̄)

どこかで天気が悪くなると呟く何か @metbot_jp 2018-01-24 18:16:41
RCSS/TSA:台北松山(台湾)
ウィンドシア
240909Z 09015KT 9999 -DZ FEW020 BKN025 BKN040 16/14 Q1016 WS R10 NOSIG RMK A3003

どこかで天気が悪くなると呟く何か @metbot_jp 2018-01-24 17:46:47
RCTP/TPE:台湾桃園(台湾)
ウィンドシア
240842Z 07020KT 9999 SCT012 BKN025 BKN040 18/13 Q1015 WS R05R NOSIG RMK A3000

どこかで天気が悪くなると呟く何か @metbot_jp 2018-01-24 16:06:34
VHHH/HKG:香港(香港)
ウィンドシア
240700Z 09018KT 9999 FEW020 21/13 Q1013 WS R07L NOSIG

どこかで天気が悪くなると呟く何か @metbot_jp 2018-01-24 15:41:39
RCTP/TPE:台湾桃園(台湾)
ウィンドシア
240630Z 07023KT 9999 FEW015 BKN030 BKN090 20/13 Q1014 WS ALL RWY NOSIG RMK A2997

どこかで天気が悪くなると呟く何か @metbot_jp 2018-01-24 14:41:32
RJCC/CTS:札幌/新千歳(日本)
ウィンドシア
240530Z 26014KT 9999 FEW015 BKN100 M07/M19 Q0998 WS R01R RMK 1ST015 5AC100 A2948

どこかで天気が悪くなると呟く何か @metbot_jp 2018-01-24 14:41:31
RCTP/TPE:台湾桃園(台湾)
ウィンドシア
240532Z 08023KT 9999 FEW015 BKN030 20/13 Q1015 WS ALL RWY NOSIG RMK A2999
240530Z 07024KT 9999 FEW015 BKN030 20/13…

どこかで天気が悪くなると呟く何か @metbot_jp 2018-01-24 13:41:29
RJCC/CTS:札幌/新千歳(日本)
ウィンドシア
240430Z 26013KT 9999 FEW015 M06/M16 Q0997 WS R01R

どこかで天気が悪くなると呟く何か @metbot_jp 2018-01-24 13:41:29
RCTP/TPE:台湾桃園(台湾)
ウィンドシア
240430Z 07019KT 9999 FEW015 BKN030 BKN080 21/13 Q1016 WS R05R NOSIG RMK A3002

どこかで天気が悪くなると呟く何か @metbot_jp 2018-01-24 12:41:24
RCTP/TPE:台湾桃園(台湾)
ウィンドシア
240330Z 07019KT 9999 FEW015 SCT025 BKN080 20/13 Q1017 WS R05R NOSIG RMK A3005

どこかで天気が悪くなると呟く何か @metbot_jp 2018-01-24 11:36:22
RCTP/TPE:台湾桃園(台湾)
ウィンドシア
240226Z 07018KT 9999 FEW015 BKN025 20/13 Q1018 WS R05R NOSIG RMK A3008

どこかで天気が悪くなると呟く何か @metbot_jp 2018-01-24 11:06:19
VHHH/HKG:香港(香港)
ウィンドシア
240200Z 10021KT 9999 FEW025 20/13 Q1016 WS R07L NOSIG

KOHNO SHIN-ICHI @siouxsie7_k 2018-01-24 10:36:53
聯合ニュースより。24日の済州島では夜明け前から雪が降り、済州空港は午前6時に2cmの積雪。除雪態勢を整えたがウィンドシア警報が出て大雪の恐れもあり、空の便に影響が出そう。 https://t.co/xYsBr0UVPq

どこかで天気が悪くなると呟く何か @metbot_jp 2018-01-24 08:56:43
CYUL/YUL:モントリオール・ピエール・エリオット・トルドー(カナダ・ケベック州)
ウィンドシア
232351Z 36003KT 280V030 5SM -FZRA BR FEW004 BKN008 OVC013 M02/M03 A2946 WS ALL RWY RMK S…

どこかで天気が悪くなると呟く何か @metbot_jp 2018-01-24 02:21:25
RCTP/TPE:台湾桃園(台湾)
ウィンドシア
231712Z 07010KT 9999 FEW015 BKN022 BKN090 17/13 Q1017 WS ALL RWY NOSIG RMK A3004

スポンサーリンク

のーと @NoTe2000jp 2018-01-23 18:52:54
ウィンドシアやEXソニック等の密着有利からアサルトグラ狩り

・微遅らせコパch中中のグラ潰し

みよし @yamahahonda24 2018-01-23 16:49:52
なんか分からんけど航空機のウィンドシアの警報好きなんだよな

どこかで天気が悪くなると呟く何か @metbot_jp 2018-01-23 16:31:39
RCSS/TSA:台北松山(台湾)
ウィンドシア
230723Z 08013G23KT 9999 FEW025 BKN050 21/15 Q1014 WS R10 NOSIG RMK A2996

どこかで天気が悪くなると呟く何か @metbot_jp 2018-01-23 15:41:34
RJAA/NRT:東京/成田(日本)
中程度の乱気流・ウィンドシア
230630Z 32011KT 9999 FEW020 06/01 Q1002 WS R34R NOSIG RMK 1CU020 A2961 MOD TURB OBS AT 0613Z 10NM E NARIT…

どこかで天気が悪くなると呟く何か @metbot_jp 2018-01-23 15:11:33
RCKH/KHH:高雄(台湾)
ウィンドシア
230600Z 27009KT 240V310 8000 FEW016 25/17 Q1012 WS R09 NOSIG RMK A2990

どこかで天気が悪くなると呟く何か @metbot_jp 2018-01-23 14:56:32
RJBB/KIX:大阪/関西(日本)
ウィンドシア
230540Z 30026G36KT 9999 FEW020 SCT040 08/M01 Q1012 WS R24L RMK 1CU020 3CU040 A2990 WS LOSS 15KT AND GAIN 10KT OBS…

どこかで天気が悪くなると呟く何か @metbot_jp 2018-01-23 12:06:22
YSSY/SYD:シドニー・キングスフォード・スミス(オーストラリア・ニューサウスウェールズ州)
ウィンドシア
230300Z 06007KT 030V110 9999 -SHRA FEW025 SCT100 BKN125 25/22 Q1011 WS ALL RWY FM03…

どこかで天気が悪くなると呟く何か @metbot_jp 2018-01-23 11:46:20
RJSN/KIJ:新潟(日本)
ウィンドシア
230231Z 19015KT 170V250 9999 VCSH FEW010 SCT015 BKN025 03/02 Q1000 WS R28 RMK 1CU010 3CU015 5CU025 A2954 P/FR

どこかで天気が悪くなると呟く何か @metbot_jp 2018-01-23 11:11:20
RJFK/KOJ:鹿児島(日本)
ウィンドシア
230200Z 33018KT 9999 FEW015 SCT030 08/00 Q1017 WS R34 RMK 1CU015 3CU030 A3004

どこかで天気が悪くなると呟く何か @metbot_jp 2018-01-23 10:11:20
CYYZ/YYZ:トロント・ピアソン(カナダ・オンタリオ州)
ウィンドシア
230100Z 08005KT 060V130 1/2SM R06R/3500V5000FT/U R05/3000V5000FT/U FG VV002 01/00 A2978 WS RWY05R RMK…

どこかで天気が悪くなると呟く何か @metbot_jp 2018-01-22 16:31:37
RCTP/TPE:台湾桃園(台湾)
ウィンドシア
220725Z 04022KT 9999 FEW012 BKN016 BKN025 17/13 Q1013 WS R05R NOSIG RMK A2993

どこかで天気が悪くなると呟く何か @metbot_jp 2018-01-22 14:41:31
RJAA/NRT:東京/成田(日本)
ウィンドシア
220530Z 03017KT 8000 -RA FEW005 SCT008 BKN013 03/01 Q1013 WS R34R TEMPO 03018G28KT FEW005 BKN008 RMK 1ST005 3ST00…

どこかで天気が悪くなると呟く何か @metbot_jp 2018-01-22 11:21:27
RJFK/KOJ:鹿児島(日本)
ウィンドシア
220200Z 33013KT 9000 -SHRA FEW001 SCT010 BKN020 06/05 Q1010 WS R34

どこかで天気が悪くなると呟く何か @metbot_jp 2018-01-22 11:21:26
RJAA/NRT:東京/成田(日本)
ウィンドシア
220200Z 03014KT 9999 -RA FEW015 BKN025 04/01 Q1018 WS R34L TEMPO 03015G25KT

どこかで天気が悪くなると呟く何か @metbot_jp 2018-01-21 14:01:24
RCKH/KHH:高雄(台湾)
ウィンドシア
210455Z 29006KT 260V320 2500 HZ FEW010 SCT025 BKN090 25/18 Q1013 WS R09 TEMPO 3000 HZ RMK A2993

どこかで天気が悪くなると呟く何か @metbot_jp 2018-01-21 12:31:19
RCTP/TPE:台湾桃園(台湾)
ウィンドシア
210326Z 06010KT 9999 FEW015 BKN090 22/17 Q1014 WS R05R NOSIG RMK A2996

好実 @YoshimiKoga 2018-01-21 06:06:29
・全日空391便函館空港着陸失敗事故(2002)A321 着陸侵入中にウィンドシアに遭遇 回復操作するも間に合わず、機体後部が滑走路に接触 乗員乗客93負傷3

CΛNDYVØXX @CANDYVOXX 2018-01-21 00:49:21
禁断の羽田VORアプローチ成功したけど二度とやりたくない
ウィンドシア制御できんし https://t.co/vGUQnCnVNK

uraki @game114_514 2018-01-20 14:21:39
スカイリムでめちゃ強装備3つ教えてって言われたら、個人的にはアルカナの指輪とウィンドシアは外せないゾ
あと1つは…分からん…

どこかで天気が悪くなると呟く何か @metbot_jp 2018-01-19 23:06:25
VHHH/HKG:香港(香港)
ウィンドシア
191400Z 09006KT 020V190 9999 FEW018 SCT040 21/17 Q1017 WS R07L NOSIG

どこかで天気が悪くなると呟く何か @metbot_jp 2018-01-19 00:06:27
VHHH/HKG:香港(香港)
ウィンドシア
181500Z 09008KT 060V120 9999 FEW028 SCT040 21/15 Q1017 WS R07L NOSIG

どこかで天気が悪くなると呟く何か @metbot_jp 2018-01-18 14:01:58
RCTP/TPE:台湾桃園(台湾)
ウィンドシア
180455Z 04015KT 9999 FEW015 BKN060 21/19 Q1015 WS R05L NOSIG RMK A3000

どこかで天気が悪くなると呟く何か @metbot_jp 2018-01-17 21:41:25
RJAA/NRT:東京/成田(日本)
中程度の乱気流・ウィンドシア
171230Z 36011KT 9000 FEW002 BKN004 09/09 Q1006 WS R34L WS R34R NOSIG RMK 1ST002 7ST004 A2972 MOD TURB OBS…

どこかで天気が悪くなると呟く何か @metbot_jp 2018-01-17 20:26:22
RCTP/TPE:台湾桃園(台湾)
ウィンドシア
171119Z 04013KT 9999 FEW008 BKN060 19/18 Q1015 WS R05L NOSIG RMK A2998

どこかで天気が悪くなると呟く何か @metbot_jp 2018-01-17 19:36:18
RJTT/HND:東京/羽田(日本)
中程度の乱気流・ウィンドシア
171023Z 32011KT 4000 -SHRA BR FEW003 SCT005 BKN006 08/08 Q1007 RMK 1ST003 3ST005 6ST006 A2974 WS 30KT GAI…

どこかで天気が悪くなると呟く何か @metbot_jp 2018-01-17 19:11:18
RJAA/NRT:東京/成田(日本)
ウィンドシア
171000Z 35010KT 3200 R34L/P1800N R34R/P1800N +SHRA BR FEW001 SCT015 BKN035 11/11 Q1007 WS R34R TEMPO FEW003 BKN005

どこかで天気が悪くなると呟く何か @metbot_jp 2018-01-17 18:06:39
RJTT/HND:東京/羽田(日本)
中程度の乱気流・ウィンドシア
170900Z 36010KT 1500 R34L/P1800N R22/P1800N R34R/1800D R23/P1800N SHRA BR FEW004 BKN025 09/09 Q1008 WS R3…

どこかで天気が悪くなると呟く何か @metbot_jp 2018-01-17 17:41:39
RJTT/HND:東京/羽田(日本)
ウィンドシア
170830Z 34010KT 1500 R34L/P1800N R22/P1800N R34R/P1800N R23/P1800N SHRA BR FEW004 SCT007 BKN015 08/08 Q1008 WS R3…

どこかで天気が悪くなると呟く何か @metbot_jp 2018-01-17 17:36:37
RCSS/TSA:台北松山(台湾)
ウィンドシア
170827Z 08015KT 9999 FEW015 BKN060 22/17 Q1014 WS R10 NOSIG RMK A2996

どこかで天気が悪くなると呟く何か @metbot_jp 2018-01-16 21:06:28
RJFF/FUK:福岡(日本)
ウィンドシア
161200Z 17011KT 9999 -RA FEW040 SCT070 BKN100 15/08 Q1012 WS R16 RMK 1CU040 3AC070 7AC100 A2991

clavier_continuo @mk_continuo 2018-01-16 19:34:43
ウィンドシア #このツイート見たやつは適当に六文字呟く

どこかで天気が悪くなると呟く何か @metbot_jp 2018-01-16 19:11:27
RJFF/FUK:福岡(日本)
ウィンドシア
161000Z 17014KT 9999 -RA FEW040 SCT060 BKN070 16/08 Q1013 WS R16

どこかで天気が悪くなると呟く何か @metbot_jp 2018-01-15 18:36:41
RJSN/KIJ:新潟(日本)
ウィンドシア
150924Z 25017KT 210V290 9999 -SHRA FEW020 SCT040 BKN050 07/04 Q1018 WS R28 RMK 2CU020 3CU040 5CU050 A3008

スポンサーリンク

どこかで天気が悪くなると呟く何か @metbot_jp 2018-01-15 16:41:33
RJAA/NRT:東京/成田(日本)
ウィンドシア
150730Z 21009KT 170V230 9999 FEW030 11/01 Q1018 WS R16R WS R16L NOSIG

スポンサーリンク

▼ 関連項目 ▼
/ アルバ / 暗殺者 / 威圧 / / エール / 黄金の手首ガード / 回復 / カタリア号 / キーニング / 吸血鬼 / 吸血鬼の王 / / 緊急事態 / クエスト / 軽装 / 鹿 / 死霊術 / スカイリム / スリ / 装備 / ダガー / 洞窟 / / 取る / / ベント / / 麻痺 / / メイス / 指輪 / 夜明け / リア /

▼このスカイリムったー【ウィンドシア】のページを共有▼

▼ 系列用語集リンク ▼
TES:IV用語集/ TES:V用語集/ Fo3用語集/ FoNV用語集ログ/ 用語集横断検索
スカイリムったー